Time;durP1;ratioP1;P1;durP2;ratioP2;P2;SDS_P1;SDS_P2;PMS_P1;PMS_P2;Temp;Humidity;BMP_temperature;BMP_pressure;BME280_temperature;BME280_humidity;BME280_pressure;Samples;Min_cycle;Max_cycle;Signal;HPM_P1;HPM_P2
2022/11/06 00:01:57;;;;;;;12.65;5.43;;;;;;;7.80;100.00;100188.25;12192637;19;20010;-82
2022/11/06 00:10:24;;;;;;;13.25;5.63;;;;;;;7.84;100.00;100177.69;12196932;19;20223;-81
2022/11/06 00:14:26;;;;;;;11.73;5.97;;;;;;;7.85;100.00;100182.09;12216643;19;20530;-81
2022/11/06 00:18:27;;;;;;;14.38;6.43;;;;;;;7.83;100.00;100174.09;12215856;19;20007;-82
2022/11/06 00:22:32;;;;;;;11.88;5.90;;;;;;;7.81;100.00;100176.22;12195614;19;20025;-80
2022/11/06 00:26:34;;;;;;;11.43;5.72;;;;;;;7.78;100.00;100167.59;12219100;19;20018;-81
2022/11/06 00:30:36;;;;;;;8.00;4.38;;;;;;;7.68;100.00;100166.19;12218731;19;20007;-81
2022/11/06 00:34:37;;;;;;;12.02;4.82;;;;;;;7.61;100.00;100157.16;12195415;19;20125;-81
2022/11/06 00:38:39;;;;;;;10.95;5.70;;;;;;;7.56;100.00;100148.78;12219668;19;20023;-81
2022/11/06 00:42:41;;;;;;;11.73;4.97;;;;;;;7.50;100.00;100144.19;12217232;19;20011;-82
2022/11/06 00:46:42;;;;;;;13.32;5.28;;;;;;;7.47;100.00;100133.66;12195366;19;20477;-81
2022/11/06 00:50:44;;;;;;;14.93;5.70;;;;;;;7.40;100.00;100130.94;12243984;19;20040;-81
2022/11/06 00:54:45;;;;;;;11.13;5.70;;;;;;;7.36;100.00;100126.13;12262665;19;20035;-80
2022/11/06 00:58:48;;;;;;;13.60;5.97;;;;;;;7.35;100.00;100128.03;12203396;19;20531;-81
2022/11/06 01:02:49;;;;;;;15.68;6.20;;;;;;;7.32;100.00;100125.75;12220052;19;20013;-82
2022/11/06 01:06:53;;;;;;;14.52;5.80;;;;;;;7.30;100.00;100125.09;12217291;19;20365;-82
2022/11/06 01:10:54;;;;;;;12.48;5.90;;;;;;;7.27;100.00;100120.91;12195491;19;20491;-82
2022/11/06 01:14:57;;;;;;;11.32;4.80;;;;;;;7.27;100.00;100118.16;12216535;19;20019;-81
2022/11/06 01:18:59;;;;;;;15.37;5.70;;;;;;;7.24;100.00;100120.50;12216149;19;20646;-82
2022/11/06 01:23:00;;;;;;;15.63;6.22;;;;;;;7.21;100.00;100108.09;12190243;19;20267;-82
2022/11/06 01:27:02;;;;;;;13.27;5.22;;;;;;;7.18;100.00;100111.25;12219002;19;20034;-82
2022/11/06 01:31:27;;;;;;;11.45;5.40;;;;;;;7.15;100.00;100106.22;12196052;19;20043;-81
2022/11/06 01:35:28;;;;;;;11.57;5.15;;;;;;;7.12;100.00;100109.41;12217138;19;20031;-81
2022/11/06 01:39:30;;;;;;;12.70;5.68;;;;;;;7.09;100.00;100109.84;12217701;19;20007;-82
2022/11/06 01:43:53;;;;;;;11.85;5.45;;;;;;;7.09;100.00;100107.09;12202810;19;20026;-81
2022/11/06 01:47:55;;;;;;;;;;;;;;;7.03;100.00;100111.56;12222280;19;20015;-82
2022/11/06 01:52:02;;;;;;;12.80;5.13;;;;;;;7.02;100.00;100109.91;12214472;19;19915;-82
2022/11/06 01:56:07;;;;;;;15.63;5.22;;;;;;;6.99;100.00;100101.25;12190492;19;20010;-81
2022/11/06 02:00:09;;;;;;;15.75;5.07;;;;;;;6.94;100.00;100085.47;12235975;19;20006;-82
2022/11/06 02:04:13;;;;;;;9.73;4.82;;;;;;;6.92;100.00;100086.75;12210837;19;20010;-82
2022/11/06 02:08:18;;;;;;;13.68;5.68;;;;;;;6.92;100.00;100078.53;12237432;19;20094;-81
2022/11/06 02:12:40;;;;;;;14.35;5.28;;;;;;;6.91;100.00;100083.19;12211952;19;20026;-82
2022/11/06 02:16:55;;;;;;;13.98;5.75;;;;;;;6.90;100.00;100077.91;12185246;19;20024;-82
2022/11/06 02:21:35;;;;;;;12.40;5.20;;;;;;;6.87;100.00;100078.34;12206543;19;20015;-82
2022/11/06 02:25:47;;;;;;;15.93;5.65;;;;;;;6.84;100.00;100071.41;12200562;19;20038;-82
2022/11/06 02:30:04;;;;;;;11.45;5.18;;;;;;;6.79;100.00;100072.06;12234988;19;20015;-82
2022/11/06 02:34:12;;;;;;;11.82;5.47;;;;;;;6.77;100.00;100074.19;12201996;19;20007;-82
2022/11/06 02:38:29;;;;;;;14.27;5.13;;;;;;;6.74;100.00;100058.19;12234983;19;20006;-82
2022/11/06 02:42:36;;;;;;;16.52;5.43;;;;;;;6.74;100.00;100063.66;12225320;19;20013;-82
2022/11/06 02:46:43;;;;;;;13.68;5.53;;;;;;;6.74;100.00;100060.94;12195509;19;20031;-83
2022/11/06 02:50:49;;;;;;;12.75;5.03;;;;;;;6.72;100.00;100054.84;12221137;19;20014;-81
2022/11/06 02:55:02;;;;;;;12.25;6.18;;;;;;;6.70;100.00;100050.66;12225845;19;20061;-81
2022/11/06 02:59:11;;;;;;;16.00;5.50;;;;;;;6.67;100.00;100057.41;12187326;19;20011;-81
2022/11/06 03:03:18;;;;;;;11.82;4.88;;;;;;;6.65;100.00;100055.94;12208095;19;20472;-80
2022/11/06 03:08:04;;;;;;;15.02;5.90;;;;;;;6.62;100.00;100054.47;12187609;19;20003;-80
2022/11/06 03:12:15;;;;;;;15.35;5.32;;;;;;;6.58;100.00;100055.97;12214559;19;20027;-80
2022/11/06 03:16:35;;;;;;;15.18;5.22;;;;;;;6.55;100.00;100061.88;12193358;19;20011;-80
2022/11/06 03:21:17;;;;;;;11.90;5.63;;;;;;;6.50;100.00;100073.47;12215138;19;20022;-80
2022/11/06 03:25:34;;;;;;;14.20;5.95;;;;;;;6.48;100.00;100074.75;12195618;19;20011;-80
2022/11/06 03:29:53;;;;;;;13.65;6.07;;;;;;;6.46;100.00;100050.34;12258719;19;20041;-80
2022/11/06 03:34:02;;;;;;;11.18;5.72;;;;;;;6.45;100.00;100031.38;12268538;19;19998;-79
2022/11/06 03:38:09;;;;;;;12.18;5.65;;;;;;;6.44;100.00;100035.19;12208234;19;20002;-81
2022/11/06 03:42:18;;;;;;;14.48;6.53;;;;;;;6.42;100.00;100049.06;12218823;19;20574;-80
2022/11/06 03:46:25;;;;;;;16.65;6.38;;;;;;;6.39;100.00;100044.03;12199775;19;20428;-81
2022/11/06 03:51:04;;;;;;;13.80;6.03;;;;;;;6.36;100.00;100048.03;12219371;19;20007;-81
2022/11/06 03:55:29;;;;;;;15.23;6.15;;;;;;;6.34;100.00;100046.59;12196380;19;20011;-81
2022/11/06 03:59:41;;;;;;;12.77;5.97;;;;;;;6.31;100.00;100036.94;12217712;19;20382;-80
2022/11/06 04:03:55;;;;;;;13.05;6.38;;;;;;;6.28;100.00;100034.63;12219080;19;20022;-81
2022/11/06 04:16:46;;;;;;;10.85;6.07;;;;;;;6.19;100.00;100030.44;12195670;19;20022;-81
2022/11/06 04:30:05;;;;;;;12.60;5.55;;;;;;;6.12;100.00;100033.19;12214660;19;20006;-82
2022/11/06 04:34:17;;;;;;;16.50;6.05;;;;;;;6.12;100.00;100016.75;12193090;19;20011;-81
2022/11/06 04:38:56;;;;;;;11.13;5.72;;;;;;;6.10;100.00;100018.06;12215602;19;20003;-81
2022/11/06 04:43:02;;;;;;;14.73;5.90;;;;;;;6.09;100.00;100011.72;12215092;19;20030;-82
2022/11/06 04:47:08;;;;;;;14.25;6.32;;;;;;;6.10;100.00;100034.47;12194233;19;20017;-81
2022/11/06 04:51:12;;;;;;;13.05;5.60;;;;;;;6.09;100.00;100040.97;12213257;19;20024;-81
2022/11/06 04:55:13;;;;;;;12.15;5.53;;;;;;;6.10;100.00;100042.69;12190054;19;19998;-81
2022/11/06 04:59:17;;;;;;;13.82;6.72;;;;;;;6.11;100.00;100033.41;12212686;19;20010;-80
2022/11/06 05:03:18;;;;;;;14.80;6.20;;;;;;;6.12;100.00;100022.25;12212253;19;20015;-81
2022/11/06 05:07:20;;;;;;;13.52;5.78;;;;;;;6.13;100.00;100036.78;12190860;19;20114;-82
2022/11/06 05:11:22;;;;;;;15.25;6.50;;;;;;;6.12;100.00;100041.38;12211803;19;20010;-81
2022/11/06 05:15:23;;;;;;;13.38;6.95;;;;;;;6.13;100.00;100047.72;12211632;19;20027;-81
2022/11/06 05:19:25;;;;;;;14.35;6.00;;;;;;;6.12;100.00;100046.84;12189532;19;20022;-82
2022/11/06 05:23:26;;;;;;;16.02;6.40;;;;;;;6.15;100.00;100059.28;12209705;19;20010;-81
2022/11/06 05:27:28;;;;;;;15.65;6.80;;;;;;;6.15;100.00;100046.44;12211082;19;20023;-81
2022/11/06 05:31:30;;;;;;;15.73;6.47;;;;;;;6.15;100.00;100040.13;12184540;19;20010;-82
2022/11/06 05:35:31;;;;;;;16.63;7.50;;;;;;;6.18;100.00;100025.16;12211819;19;20038;-81
2022/11/06 05:39:33;;;;;;;17.40;7.20;;;;;;;6.18;100.00;100023.28;12209625;19;20573;-81
2022/11/06 05:43:41;;;;;;;14.55;7.13;;;;;;;6.19;100.00;100014.03;12185879;19;20010;-81
2022/11/06 05:47:43;;;;;;;14.23;6.80;;;;;;;6.18;100.00;100006.84;12210823;19;20002;-82
2022/11/06 05:51:45;;;;;;;15.88;7.75;;;;;;;6.16;100.00;100007.09;12209158;19;20034;-82
2022/11/06 05:55:47;;;;;;;13.83;6.53;;;;;;;6.16;100.00;100009.00;12218353;19;20070;-80
2022/11/06 05:59:48;;;;;;;15.57;7.05;;;;;;;6.16;100.00;100007.09;12259386;19;20014;-80
2022/11/06 06:03:50;;;;;;;17.55;7.18;;;;;;;6.16;100.00;99987.09;12256190;19;20031;-81
2022/11/06 06:07:52;;;;;;;16.27;6.72;;;;;;;6.16;100.00;99979.72;12201636;19;20006;-81
2022/11/06 06:11:53;;;;;;;13.98;6.45;;;;;;;6.15;100.00;99967.09;12209325;19;20050;-81
2022/11/06 06:16:00;;;;;;;13.30;5.60;;;;;;;6.16;100.00;99965.22;12209472;19;20011;-81
2022/11/06 06:20:01;;;;;;;13.65;5.72;;;;;;;6.18;100.00;99959.50;12189193;19;20002;-81
2022/11/06 06:24:04;;;;;;;14.73;5.80;;;;;;;6.20;100.00;99974.66;12217675;19;20041;-81
2022/11/06 06:28:06;;;;;;;13.02;5.03;;;;;;;6.20;100.00;99971.91;12188183;19;20436;-81
2022/11/06 06:32:07;;;;;;;12.80;5.33;;;;;;;6.24;100.00;99956.72;12206680;19;20043;-81
2022/11/06 06:36:09;;;;;;;11.95;5.20;;;;;;;6.26;100.00;99954.63;12208968;19;20011;-81
2022/11/06 06:40:11;;;;;;;11.82;5.50;;;;;;;6.27;100.00;99933.56;12188201;19;20010;-80
2022/11/06 06:44:13;;;;;;;12.55;5.00;;;;;;;6.30;100.00;99919.44;12218698;19;20038;-82
2022/11/06 06:48:15;;;;;;;10.23;4.50;;;;;;;6.31;100.00;99916.50;12221962;19;20051;-81
2022/11/06 06:52:17;;;;;;;11.65;5.03;;;;;;;6.32;100.00;99912.69;12196056;19;20030;-82
2022/11/06 06:56:19;;;;;;;8.32;4.35;;;;;;;6.36;100.00;99915.81;12221640;19;20031;-81
2022/11/06 07:00:20;;;;;;;9.93;3.95;;;;;;;6.39;100.00;99896.22;12218360;19;20003;-82
2022/11/06 07:04:22;;;;;;;9.32;4.38;;;;;;;6.39;100.00;99894.34;12197609;19;20070;-80
2022/11/06 07:08:27;;;;;;;8.38;3.80;;;;;;;6.39;100.00;99894.34;12224072;19;20011;-81
2022/11/06 07:12:29;;;;;;;12.55;4.65;;;;;;;6.43;100.00;99889.28;12219365;19;20081;-80
2022/11/06 07:16:31;;;;;;;5.75;3.40;;;;;;;6.48;100.00;99889.44;12194895;19;20019;-80
2022/11/06 07:20:33;;;;;;;8.68;4.13;;;;;;;6.56;100.00;99899.28;12216501;19;20034;-80
2022/11/06 07:24:35;;;;;;;8.13;3.65;;;;;;;6.61;100.00;99899.47;12214230;19;20071;-79
2022/11/06 07:28:37;;;;;;;8.48;3.72;;;;;;;6.63;100.00;99902.78;12195217;19;20407;-80
2022/11/06 07:32:39;;;;;;;7.68;3.95;;;;;;;6.67;100.00;99897.75;12215956;19;20030;-80
2022/11/06 07:36:40;;;;;;;7.55;3.95;;;;;;;6.71;100.00;99894.31;12215846;19;20015;-80
2022/11/06 07:40:42;;;;;;;8.20;3.92;;;;;;;6.78;100.00;99884.16;12193373;19;20027;-81
2022/11/06 07:44:44;;;;;;;6.15;2.75;;;;;;;6.87;100.00;99884.72;12216758;19;20014;-80
2022/11/06 07:48:45;;;;;;;8.25;3.60;;;;;;;6.98;100.00;99873.00;12211604;19;20460;-80
2022/11/06 07:52:47;;;;;;;7.63;3.47;;;;;;;7.08;100.00;99886.22;12188588;19;20007;-81
2022/11/06 07:56:48;;;;;;;8.50;3.92;;;;;;;7.17;100.00;99884.00;12215374;19;20568;-81
2022/11/06 08:00:52;;;;;;;6.70;3.78;;;;;;;7.25;100.00;99883.72;12213972;19;20031;-80
2022/11/06 08:04:54;;;;;;;10.25;4.20;;;;;;;7.35;100.00;99886.78;12191693;19;20056;-81
2022/11/06 08:08:55;;;;;;;8.45;3.75;;;;;;;7.47;100.00;99900.59;12212095;19;20010;-80
2022/11/06 08:12:59;;;;;;;11.93;3.28;;;;;;;7.59;100.00;99900.69;12196054;19;20015;-81
2022/11/06 08:17:01;;;;;;;9.35;3.33;;;;;;;7.73;100.00;99907.66;12173839;19;20007;-80
2022/11/06 08:21:04;;;;;;;6.88;3.35;;;;;;;7.85;100.00;99916.81;12209648;19;20003;-81
2022/11/06 08:25:06;;;;;;;8.68;3.88;;;;;;;7.98;100.00;99905.69;12206079;19;20033;-81
2022/11/06 08:29:08;;;;;;;9.38;5.05;;;;;;;8.02;100.00;99916.19;12210030;19;20025;-82
2022/11/06 08:33:09;;;;;;;11.10;4.90;;;;;;;8.01;100.00;99920.00;12211956;19;20808;-81
2022/11/06 08:37:11;;;;;;;11.10;5.43;;;;;;;8.05;100.00;99932.19;12190566;19;20014;-82
2022/11/06 08:41:13;;;;;;;10.80;5.10;;;;;;;8.12;100.00;99922.81;12209815;19;20014;-81
2022/11/06 08:45:15;;;;;;;10.23;4.95;;;;;;;8.18;100.00;99908.16;12210482;19;20033;-81
2022/11/06 08:49:17;;;;;;;14.07;5.55;;;;;;;8.27;100.00;99902.34;12184922;19;20014;-81
2022/11/06 08:53:18;;;;;;;10.32;5.60;;;;;;;8.41;100.00;99892.88;12202240;19;20736;-81
2022/11/06 08:57:20;;;;;;;9.77;5.00;;;;;;;8.56;100.00;99893.28;12203234;19;20007;-82
2022/11/06 09:01:22;;;;;;;9.02;4.93;;;;;;;8.65;100.00;99891.03;12188743;19;20014;-82
2022/11/06 09:05:25;;;;;;;9.55;4.78;;;;;;;8.77;100.00;99885.56;12212182;19;20046;-82
2022/11/06 09:09:30;;;;;;;11.47;5.10;;;;;;;8.87;100.00;99870.19;12210119;19;20138;-83
2022/11/06 09:13:33;;;;;;;11.40;6.90;;;;;;;8.99;100.00;99872.09;12188595;19;20077;-84
2022/11/06 09:17:44;;;;;;;10.77;5.93;;;;;;;9.05;100.00;99882.97;12210569;19;20473;-84
2022/11/06 09:21:46;;;;;;;11.00;5.95;;;;;;;9.18;100.00;99862.66;12199775;19;20812;-84
2022/11/06 09:25:56;;;;;;;11.55;5.40;;;;;;;9.32;100.00;99853.09;12190286;19;20026;-84
2022/11/06 09:29:58;;;;;;;11.40;4.82;;;;;;;9.46;100.00;99845.44;12192017;19;20007;-84
2022/11/06 09:33:59;;;;;;;9.48;5.07;;;;;;;9.56;100.00;99844.81;12215507;19;20038;-82
2022/11/06 09:38:14;;;;;;;13.85;5.75;;;;;;;9.68;100.00;99825.50;12216634;19;21286;-83
2022/11/06 09:42:18;;;;;;;10.77;5.15;;;;;;;9.82;100.00;99826.91;12210379;19;20014;-82
2022/11/06 09:46:27;;;;;;;10.13;5.13;;;;;;;9.91;100.00;99806.16;12185468;19;20129;-81
2022/11/06 09:50:34;;;;;;;7.80;4.63;;;;;;;10.06;100.00;99802.03;12214939;19;20035;-82
2022/11/06 09:54:45;;;;;;;8.68;4.82;;;;;;;10.14;100.00;99793.38;12215204;19;20389;-82
2022/11/06 09:58:53;;;;;;;10.32;4.93;;;;;;;10.17;100.00;99784.59;12193422;19;20035;-83
2022/11/06 10:03:04;;;;;;;12.00;6.28;;;;;;;10.24;100.00;99782.56;12213771;19;20031;-82
2022/11/06 10:07:30;;;;;;;8.73;4.97;;;;;;;10.27;100.00;99782.09;12214476;19;20007;-82
2022/11/06 10:11:56;;;;;;;8.05;4.53;;;;;;;10.23;100.00;99775.34;12188114;19;20026;-82
2022/11/06 10:16:34;;;;;;;13.25;5.30;;;;;;;10.23;100.00;99750.56;12218797;19;20011;-82
2022/11/06 10:20:51;;;;;;;8.88;4.72;;;;;;;10.32;100.00;99732.59;12213855;19;20015;-82
2022/11/06 10:25:19;;;;;;;8.23;4.40;;;;;;;10.44;100.00;99722.34;12236338;19;20010;-82
2022/11/06 10:29:37;;;;;;;9.52;4.15;;;;;;;10.56;100.00;99708.47;12213404;19;20002;-82
2022/11/06 10:33:51;;;;;;;8.95;4.20;;;;;;;10.73;100.00;99711.19;12237669;19;20630;-82
2022/11/06 10:38:09;;;;;;;8.02;3.60;;;;;;;10.90;100.00;99711.97;12240834;19;20017;-82
2022/11/06 10:42:18;;;;;;;8.73;2.83;;;;;;;11.12;100.00;99703.75;12282450;19;20401;-81
2022/11/06 10:46:47;;;;;;;4.53;2.25;;;;;;;11.35;100.00;99708.16;12257663;19;20014;-84
2022/11/06 10:51:28;;;;;;;5.68;2.25;;;;;;;11.60;100.00;99698.47;12239859;19;20011;-84
2022/11/06 10:56:13;;;;;;;5.93;2.70;;;;;;;11.80;100.00;99698.69;12242546;19;20010;-83
2022/11/06 11:00:22;;;;;;;6.15;3.03;;;;;;;11.92;100.00;99694.97;12239309;19;20010;-82
2022/11/06 11:04:42;;;;;;;3.97;2.28;;;;;;;12.06;100.00;99694.28;12259917;19;20007;-83
2022/11/06 11:10:28;;;;;;;5.00;2.13;;;;;;;12.26;100.00;99673.47;12251780;19;20112;-84
2022/11/06 11:20:41;;;;;;;4.38;2.50;;;;;;;12.57;97.42;99652.41;12230801;19;20019;-83
2022/11/06 11:30:51;;;;;;;6.60;2.45;;;;;;;13.03;94.51;99635.22;12219777;19;20034;-84
2022/11/06 11:34:55;;;;;;;7.60;2.47;;;;;;;13.23;92.81;99621.44;12198723;19;20019;-84
2022/11/06 11:38:57;;;;;;;4.38;2.85;;;;;;;13.43;91.83;99607.69;12224095;19;20018;-84
2022/11/06 11:43:20;;;;;;;3.70;2.05;;;;;;;13.77;89.21;99611.91;12217419;19;20036;-84
2022/11/06 11:47:23;;;;;;;3.17;1.98;;;;;;;14.15;87.65;99599.44;12200898;19;20166;-84
2022/11/06 11:51:33;;;;;;;3.15;1.98;;;;;;;14.45;80.56;99584.69;12219485;19;20070;-83
2022/11/06 11:55:39;;;;;;;3.47;1.88;;;;;;;14.65;80.48;99575.53;12200326;19;20011;-86
2022/11/06 11:59:45;;;;;;;4.57;1.75;;;;;;;14.74;80.25;99556.34;12217416;19;20011;-83
2022/11/06 12:03:51;;;;;;;3.28;1.70;;;;;;;14.82;79.26;99536.34;12219897;19;20034;-84
2022/11/06 12:07:55;;;;;;;2.63;1.75;;;;;;;14.69;77.47;99528.63;12200571;19;20090;-85
2022/11/06 12:11:59;;;;;;;3.35;1.70;;;;;;;14.56;77.06;99528.13;12225489;19;20114;-84
2022/11/06 12:16:10;;;;;;;3.50;1.55;;;;;;;14.52;76.94;99510.41;12229445;19;20111;-83
2022/11/06 12:20:19;;;;;;;4.20;1.75;;;;;;;14.46;76.56;99517.06;12203418;19;20033;-83
2022/11/06 12:24:32;;;;;;;3.75;1.45;;;;;;;14.62;76.61;99501.22;12225705;19;20011;-82
2022/11/06 12:28:36;;;;;;;2.40;1.40;;;;;;;14.90;76.62;99494.16;12199923;19;20011;-82
2022/11/06 12:33:03;;;;;;;3.03;1.50;;;;;;;15.17;73.42;99481.75;12219886;19;20090;-83
2022/11/06 12:37:33;;;;;;;3.70;1.77;;;;;;;15.53;73.01;99487.03;12224606;19;20474;-83
2022/11/06 12:41:40;;;;;;;2.80;1.63;;;;;;;16.06;71.39;99478.78;12194516;19;20105;-84
2022/11/06 12:45:50;;;;;;;3.33;1.30;;;;;;;16.37;69.16;99459.81;12212620;19;20011;-83
2022/11/06 12:50:22;;;;;;;4.43;1.83;;;;;;;16.27;68.17;99452.44;12187933;19;20007;-83
2022/11/06 12:54:42;;;;;;;3.53;1.60;;;;;;;16.02;68.00;99445.19;12221892;19;20019;-83
2022/11/06 12:58:57;;;;;;;2.60;1.23;;;;;;;15.79;67.84;99435.72;12200707;19;20471;-84
2022/11/06 13:03:29;;;;;;;2.00;1.08;;;;;;;15.61;67.20;99422.53;12219738;19;20003;-83
2022/11/06 13:08:11;;;;;;;2.03;1.17;;;;;;;15.41;66.51;99437.47;12201680;19;20041;-82
2022/11/06 13:12:25;;;;;;;1.92;1.10;;;;;;;15.28;67.50;99411.16;12215748;19;20011;-83
2022/11/06 13:16:30;;;;;;;2.05;1.25;;;;;;;15.18;67.42;99405.72;12198327;19;20006;-83
2022/11/06 13:20:56;;;;;;;2.55;1.52;;;;;;;15.06;66.95;99410.81;12217821;19;20007;-83
2022/11/06 13:25:14;;;;;;;2.30;1.35;;;;;;;14.86;67.34;99406.22;12225967;19;20041;-83
2022/11/06 13:29:18;;;;;;;1.65;1.13;;;;;;;14.74;67.67;99410.19;12234764;19;20006;-83
2022/11/06 13:33:25;;;;;;;2.90;1.35;;;;;;;14.61;67.12;99404.47;12229550;19;20077;-83
2022/11/06 13:37:39;;;;;;;2.20;1.10;;;;;;;14.34;65.66;99417.59;12205291;19;20477;-83
2022/11/06 13:41:41;;;;;;;3.03;1.30;;;;;;;14.16;66.75;99415.47;12225887;19;20070;-83
2022/11/06 13:45:46;;;;;;;1.70;1.13;;;;;;;14.01;66.52;99409.94;12219008;19;20002;-85
2022/11/06 13:50:04;;;;;;;1.80;1.10;;;;;;;13.93;67.29;99411.38;12203896;19;20007;-84
2022/11/06 13:54:22;;;;;;;3.33;1.35;;;;;;;13.85;67.39;99406.41;12220241;19;20046;-86
2022/11/06 13:59:06;;;;;;;1.83;1.08;;;;;;;13.85;67.79;99407.22;12229648;19;20010;-84
2022/11/06 14:03:38;;;;;;;3.25;1.55;;;;;;;13.86;68.98;99392.28;12230449;19;20062;-85
2022/11/06 14:07:41;;;;;;;2.23;0.90;;;;;;;13.88;68.90;99380.91;12201721;19;20024;-85
2022/11/06 14:11:50;;;;;;;1.83;0.93;;;;;;;13.87;69.25;99365.41;12220998;19;20002;-85
2022/11/06 14:16:26;;;;;;;3.90;1.33;;;;;;;13.84;69.17;99364.03;12224489;19;20116;-85
2022/11/06 14:20:35;;;;;;;2.85;1.50;;;;;;;13.73;69.78;99375.44;12203970;19;20098;-85
2022/11/06 14:24:41;;;;;;;2.58;1.58;;;;;;;13.64;70.01;99373.22;12229824;19;20003;-86
2022/11/06 14:28:43;;;;;;;2.10;1.38;;;;;;;13.58;69.84;99379.91;12207316;19;20035;-85
2022/11/06 14:32:48;;;;;;;2.15;1.40;;;;;;;13.52;70.98;99386.56;12227954;19;20007;-83
2022/11/06 14:36:50;;;;;;;3.92;1.58;;;;;;;13.47;71.60;99382.97;12227247;19;20015;-85
2022/11/06 14:40:51;;;;;;;2.65;1.40;;;;;;;13.41;72.45;99379.38;12198718;19;20011;-85
2022/11/06 14:45:01;;;;;;;3.83;1.67;;;;;;;13.39;72.39;99382.44;12220906;19;20006;-85
2022/11/06 14:49:28;;;;;;;3.92;2.00;;;;;;;13.40;73.16;99374.94;12223298;19;20010;-84
2022/11/06 14:53:33;;;;;;;2.15;1.60;;;;;;;13.40;74.43;99370.25;12199381;19;20128;-85
2022/11/06 14:57:41;;;;;;;2.97;1.65;;;;;;;13.37;75.41;99369.97;12222856;19;20066;-85
2022/11/06 15:02:13;;;;;;;2.50;1.33;;;;;;;13.29;76.38;99365.00;12196495;19;20014;-85
2022/11/06 15:06:15;;;;;;;2.58;1.13;;;;;;;13.13;77.20;99361.41;12236897;19;20014;-83
2022/11/06 15:10:41;;;;;;;5.63;1.30;;;;;;;12.96;78.41;99367.19;12212779;19;20015;-83
2022/11/06 15:14:42;;;;;;;3.08;1.10;;;;;;;12.83;78.99;99373.28;12231561;19;20030;-85
2022/11/06 15:18:44;;;;;;;1.98;1.17;;;;;;;12.68;80.12;99363.88;12231533;19;20457;-85
2022/11/06 15:22:54;;;;;;;5.17;1.70;;;;;;;12.53;81.25;99345.31;12207872;19;20007;-85
2022/11/06 15:27:03;;;;;;;5.18;1.50;;;;;;;12.38;81.83;99336.19;12231707;19;20017;-85
2022/11/06 15:31:11;;;;;;;3.15;1.27;;;;;;;12.24;82.99;99327.59;12233318;19;20491;-85
2022/11/06 15:35:30;;;;;;;2.45;1.17;;;;;;;12.13;84.06;99343.28;12211360;19;20011;-85
2022/11/06 15:39:41;;;;;;;3.78;1.55;;;;;;;12.02;83.49;99336.09;12228165;19;20103;-84
2022/11/06 15:43:45;;;;;;;2.67;1.30;;;;;;;11.93;84.33;99327.50;12208118;19;20141;-85
2022/11/06 15:48:01;;;;;;;6.88;2.33;;;;;;;11.83;85.32;99322.72;12223937;19;20510;-84
2022/11/06 15:52:04;;;;;;;4.03;2.50;;;;;;;11.74;86.30;99318.81;12225856;19;20363;-84
2022/11/06 15:56:07;;;;;;;2.58;1.40;;;;;;;11.66;86.92;99324.88;12208401;19;20371;-84
2022/11/06 16:00:20;;;;;;;3.70;1.20;;;;;;;11.58;87.51;99325.38;12226893;19;20022;-84
2022/11/06 16:04:24;;;;;;;;;;;;;;;11.47;87.40;99323.66;12206834;19;20029;-85
2022/11/06 16:08:28;;;;;;;2.20;1.20;;;;;;;11.41;88.02;99320.03;12227601;19;19919;-84
2022/11/06 16:12:31;;;;;;;3.85;1.42;;;;;;;11.39;89.35;99323.09;12257994;19;20014;-84
2022/11/06 16:16:37;;;;;;;;;;;;;;;11.36;90.27;99318.09;12251234;19;20030;-84
2022/11/06 16:20:38;;;;;;;6.63;2.10;;;;;;;11.29;90.11;99317.50;12237057;19;19947;-85
2022/11/06 16:25:01;;;;;;;4.40;1.98;;;;;;;11.23;91.60;99317.72;12231970;19;20015;-85
2022/11/06 16:29:15;;;;;;;4.75;1.65;;;;;;;11.11;92.04;99321.50;12210905;19;20007;-85
2022/11/06 16:33:22;;;;;;;4.40;1.67;;;;;;;11.01;92.57;99304.91;12233405;19;20431;-85
2022/11/06 16:37:26;;;;;;;2.22;1.60;;;;;;;10.94;93.23;99307.88;12219344;19;20013;-84
2022/11/06 16:47:18;;;;;;;6.72;3.08;;;;;;;10.76;95.15;99324.81;12206579;19;20119;-85
2022/11/06 16:51:34;;;;;;;4.82;2.45;;;;;;;10.77;95.63;99323.75;12224268;19;20047;-85
2022/11/06 16:55:36;;;;;;;4.18;2.20;;;;;;;10.80;96.15;99334.25;12208471;19;20023;-84
2022/11/06 16:59:38;;;;;;;2.95;1.63;;;;;;;10.83;96.40;99343.91;12227420;19;20010;-83
2022/11/06 17:03:47;;;;;;;3.13;1.75;;;;;;;10.85;96.38;99341.72;12251027;19;20014;-84
2022/11/06 17:08:26;;;;;;;3.40;2.13;;;;;;;10.84;96.76;99356.59;12224693;19;20002;-84
2022/11/06 17:12:30;;;;;;;3.38;2.03;;;;;;;10.85;96.35;99367.34;12237876;19;20014;-84
2022/11/06 17:16:44;;;;;;;6.60;2.50;;;;;;;10.85;96.43;99361.84;12216347;19;20070;-84
2022/11/06 17:20:50;;;;;;;5.35;2.17;;;;;;;10.86;96.85;99366.28;12234088;19;20014;-84
2022/11/06 17:24:52;;;;;;;3.17;1.92;;;;;;;10.89;97.46;99360.22;12230144;19;20006;-83
2022/11/06 17:28:56;;;;;;;3.80;2.20;;;;;;;10.93;97.76;99364.13;12209377;19;20082;-83
2022/11/06 17:32:57;;;;;;;10.05;4.38;;;;;;;10.96;97.77;99337.94;12237744;19;20019;-83
2022/11/06 17:36:59;;;;;;;5.63;3.45;;;;;;;11.02;98.27;99347.09;12258899;19;20068;-84
2022/11/06 17:41:01;;;;;;;7.28;2.67;;;;;;;11.05;98.54;99321.75;12254006;19;20003;-84
2022/11/06 17:45:03;;;;;;;5.45;3.20;;;;;;;11.03;99.16;99321.16;12267618;19;20014;-84
2022/11/06 17:49:05;;;;;;;4.88;2.97;;;;;;;11.01;98.88;99329.72;12230745;19;20622;-83
2022/11/06 17:53:07;;;;;;;4.30;2.67;;;;;;;11.00;99.55;99319.78;12212725;19;20014;-83
2022/11/06 17:57:08;;;;;;;4.65;2.90;;;;;;;10.96;100.00;99313.13;12231795;19;20006;-83
2022/11/06 18:01:10;;;;;;;5.22;3.60;;;;;;;10.94;100.00;99309.81;12229513;19;20010;-83
2022/11/06 18:05:12;;;;;;;5.18;3.72;;;;;;;10.90;100.00;99306.75;12208757;19;20445;-84
2022/11/06 18:09:14;;;;;;;8.45;4.10;;;;;;;10.85;100.00;99294.84;12226356;19;20097;-84
2022/11/06 18:18:03;;;;;;;6.50;4.15;;;;;;;10.81;100.00;99296.50;12223871;19;20005;-84
2022/11/06 18:22:04;;;;;;;5.25;2.70;;;;;;;10.77;100.00;99293.44;12223389;19;20086;-84
2022/11/06 18:26:07;;;;;;;4.75;2.55;;;;;;;10.75;100.00;99279.09;12201375;19;21031;-84
2022/11/06 18:30:09;;;;;;;21.73;9.63;;;;;;;10.70;100.00;99310.16;12221174;19;20090;-83
2022/11/06 18:34:14;;;;;;;10.25;5.32;;;;;;;10.66;100.00;99309.03;12221878;19;20009;-83
2022/11/06 18:38:21;;;;;;;9.23;4.47;;;;;;;10.64;100.00;99318.66;12206083;19;20006;-83
2022/11/06 18:42:22;;;;;;;8.95;4.15;;;;;;;10.60;100.00;99323.88;12226525;19;20011;-84
2022/11/06 18:46:26;;;;;;;8.50;4.53;;;;;;;10.55;100.00;99326.56;12212352;19;20014;-83
2022/11/06 18:50:27;;;;;;;7.68;4.30;;;;;;;10.57;100.00;99338.19;12226158;19;20078;-83
2022/11/06 18:54:29;;;;;;;5.75;3.85;;;;;;;10.60;100.00;99350.59;12234084;19;20033;-82
2022/11/06 18:58:31;;;;;;;10.23;4.25;;;;;;;10.58;100.00;99366.56;12211742;19;20017;-83
2022/11/06 19:02:33;;;;;;;7.53;4.13;;;;;;;10.59;100.00;99382.84;12234856;19;20016;-83
2022/11/06 19:06:37;;;;;;;6.78;3.80;;;;;;;10.57;100.00;99368.47;12238617;19;20808;-84
2022/11/06 19:10:39;;;;;;;7.40;4.30;;;;;;;10.57;99.84;99353.88;12213396;19;21266;-82
2022/11/06 19:14:41;;;;;;;8.55;3.72;;;;;;;10.58;99.78;99352.78;12233687;19;20029;-82
2022/11/06 19:18:42;;;;;;;6.38;4.07;;;;;;;10.61;99.59;99344.81;12231239;19;20003;-82
2022/11/06 19:22:48;;;;;;;7.35;4.05;;;;;;;10.63;98.82;99348.16;12206130;19;20007;-82
2022/11/06 19:26:49;;;;;;;7.32;3.72;;;;;;;10.64;98.00;99368.25;12228533;19;20062;-81
2022/11/06 19:30:51;;;;;;;5.32;3.35;;;;;;;10.69;97.06;99349.03;12233785;19;20481;-82
2022/11/06 19:34:53;;;;;;;6.50;4.20;;;;;;;10.73;96.46;99372.19;12207004;19;20006;-82
2022/11/06 19:38:58;;;;;;;7.40;3.53;;;;;;;10.74;95.63;99376.63;12222879;19;20332;-81
2022/11/06 19:43:02;;;;;;;5.68;3.50;;;;;;;10.68;95.08;99392.28;12221153;19;20537;-82
2022/11/06 19:47:04;;;;;;;6.50;3.78;;;;;;;10.60;95.03;99397.44;12212334;19;20002;-81
2022/11/06 19:51:13;;;;;;;7.70;4.18;;;;;;;10.59;95.12;99401.25;12228510;19;20866;-83